Time;durP1;ratioP1;P1;durP2;ratioP2;P2;SDS_P1;SDS_P2;PMS_P1;PMS_P2;Temp;Humidity;BMP_temperature;BMP_pressure;BME280_temperature;BME280_humidity;BME280_pressure;Samples;Min_cycle;Max_cycle;Signal;HPM_P1;HPM_P2
2022/02/03 00:00:55;;;;;;;15.60;8.82;;;5.80;99.90;;;;;;5051933;28;20064;-71
2022/02/03 00:03:28;;;;;;;13.77;9.15;;;5.80;99.90;;;;;;5052319;28;20116;-71
2022/02/03 00:05:59;;;;;;;15.95;8.68;;;5.80;99.90;;;;;;5051885;28;20021;-71
2022/02/03 00:08:47;;;;;;;15.77;9.68;;;5.80;99.90;;;;;;5052369;28;20174;-71
2022/02/03 00:22:30;;;;;;;13.80;8.68;;;5.80;99.90;;;;;;5051341;28;20094;-71
2022/02/03 00:25:08;;;;;;;12.60;8.30;;;5.90;99.90;;;;;;5051647;28;20087;-71
2022/02/03 00:30:08;;;;;;;12.40;8.80;;;5.90;99.90;;;;;;5050951;28;20032;-71
2022/02/03 00:37:58;;;;;;;12.18;8.30;;;6.00;99.90;;;;;;5052079;28;20037;-71
2022/02/03 00:48:58;;;;;;;13.63;9.38;;;6.00;99.90;;;;;;5051481;28;20044;-71
2022/02/03 00:51:26;;;;;;;13.48;10.23;;;6.00;99.90;;;;;;5052019;28;20025;-71
2022/02/03 00:53:52;;;;;;;13.52;9.80;;;6.00;99.90;;;;;;5051162;28;20021;-71
2022/02/03 00:56:26;;;;;;;13.63;10.10;;;6.10;99.90;;;;;;5050047;28;20052;-71
2022/02/03 00:58:57;;;;;;;12.85;9.85;;;6.10;99.90;;;;;;5050826;28;20045;-72
2022/02/03 01:01:32;;;;;;;13.38;9.35;;;6.10;99.90;;;;;;5034631;28;20452;-72
2022/02/03 01:04:06;;;;;;;13.40;9.38;;;6.20;99.90;;;;;;5050711;28;20025;-71
2022/02/03 01:06:35;;;;;;;12.13;9.35;;;6.20;99.90;;;;;;5051817;28;20035;-72
2022/02/03 01:09:02;;;;;;;11.63;8.77;;;6.20;99.90;;;;;;5050437;28;20225;-71
2022/02/03 01:11:35;;;;;;;15.00;9.50;;;6.20;99.90;;;;;;5051366;28;20033;-72
2022/02/03 01:14:10;;;;;;;12.23;8.32;;;6.20;99.90;;;;;;5050863;28;20271;-71
2022/02/03 01:43:55;;;;;;;11.40;8.50;;;6.00;99.90;;;;;;5050534;28;20394;-71
2022/02/03 01:46:45;;;;;;;11.25;8.52;;;6.10;99.90;;;;;;5051383;28;20029;-72
2022/02/03 01:49:16;;;;;;;10.88;8.43;;;6.00;99.90;;;;;;5051089;28;20029;-71
2022/02/03 01:51:56;;;;;;;12.40;8.65;;;6.00;99.90;;;;;;5050884;28;20033;-73
2022/02/03 01:54:30;;;;;;;9.07;7.78;;;6.00;99.90;;;;;;5050813;28;20080;-72
2022/02/03 01:57:11;;;;;;;10.27;8.70;;;6.00;99.90;;;;;;5052340;28;20045;-71
2022/02/03 01:59:37;;;;;;;12.40;9.35;;;6.10;99.90;;;;;;5054860;28;20047;-71
2022/02/03 02:02:06;;;;;;;11.45;9.27;;;6.10;99.90;;;;;;5053973;28;20111;-72
2022/02/03 02:04:53;;;;;;;11.73;9.23;;;6.10;99.90;;;;;;5054500;28;20822;-71
2022/02/03 02:07:57;;;;;;;10.80;8.15;;;6.10;99.90;;;;;;5054905;28;20470;-71
2022/02/03 02:14:01;;;;;;;14.82;10.38;;;6.10;99.90;;;;;;5033223;28;20092;-71
2022/02/03 02:17:17;;;;;;;12.38;9.07;;;6.00;99.90;;;;;;5035051;28;20028;-71
2022/02/03 02:39:23;;;;;;;15.10;9.65;;;6.00;99.90;;;;;;5051176;28;20321;-72
2022/02/03 02:44:58;;;;;;;13.77;9.63;;;6.00;99.90;;;;;;5050762;28;20044;-71
2022/02/03 02:48:06;;;;;;;12.90;9.10;;;6.00;99.90;;;;;;5051584;28;20107;-72
2022/02/03 02:50:49;;;;;;;11.90;9.10;;;6.00;99.90;;;;;;5049353;28;20935;-72
2022/02/03 02:54:37;;;;;;;11.02;8.95;;;5.90;99.90;;;;;;5049183;28;20403;-72
2022/02/03 02:57:54;;;;;;;11.15;8.45;;;5.90;99.90;;;;;;5051437;28;20041;-72
2022/02/03 03:29:08;;;;;;;13.73;10.38;;;5.80;99.90;;;;;;5050369;28;20079;-71
2022/02/03 03:34:49;;;;;;;13.73;9.80;;;5.90;99.90;;;;;;5051480;28;20911;-71
2022/02/03 03:37:01;;;;;;;12.63;9.60;;;5.90;99.90;;;;;;5048535;28;20091;-71
2022/02/03 03:39:31;;;;;;;12.68;9.30;;;5.90;99.90;;;;;;5051972;28;20025;-71
2022/02/03 03:42:01;;;;;;;13.68;9.35;;;5.90;99.90;;;;;;5049162;28;20099;-72
2022/02/03 03:44:30;;;;;;;16.80;10.73;;;5.90;99.90;;;;;;5051632;28;20041;-71
2022/02/03 03:47:04;;;;;;;13.90;9.93;;;5.90;99.90;;;;;;5048679;28;20086;-72
2022/02/03 03:49:37;;;;;;;16.48;11.15;;;5.90;99.90;;;;;;5051332;28;20075;-71
2022/02/03 03:52:13;;;;;;;14.20;10.20;;;5.80;99.90;;;;;;5051076;28;20128;-70
2022/02/03 03:54:52;;;;;;;16.05;10.73;;;5.80;99.90;;;;;;5049935;28;20049;-70
2022/02/03 04:33:14;;;;;;;6.95;5.32;;;5.80;99.90;;;;;;5050805;28;20068;-72
2022/02/03 04:45:20;;;;;;;5.75;4.82;;;6.10;99.90;;;;;;5039806;28;20075;-71
2022/02/03 05:02:45;;;;;;;;;;;6.30;99.90;;;;;;5051267;28;20021;-71
2022/02/03 05:06:09;;;;;;;6.43;5.50;;;6.30;99.90;;;;;;5050142;28;19904;-71
2022/02/03 05:09:05;;;;;;;8.25;6.10;;;6.20;99.90;;;;;;5047814;28;20028;-71
2022/02/03 05:24:33;;;;;;;8.43;6.53;;;6.10;99.90;;;;;;5008453;28;20533;-71
2022/02/03 05:45:17;;;;;;;11.05;7.63;;;5.80;99.90;;;;;;5021209;28;20171;-74
2022/02/03 05:48:28;;;;;;;10.73;7.45;;;5.70;99.90;;;;;;5052980;28;20025;-78
2022/02/03 05:51:30;;;;;;;10.75;7.40;;;5.60;99.90;;;;;;5053204;28;20371;-77
2022/02/03 06:07:48;;;;;;;9.60;7.13;;;5.40;99.90;;;;;;5051864;28;20037;-81
2022/02/03 06:13:04;;;;;;;9.10;6.35;;;5.40;99.90;;;;;;5051233;28;20488;-80
2022/02/03 06:15:40;;;;;;;9.07;6.93;;;5.30;99.90;;;;;;5051213;28;20044;-80
2022/02/03 06:29:11;;;;;;;8.00;6.43;;;5.40;99.90;;;;;;5052965;28;20095;-81
2022/02/03 06:31:48;;;;;;;7.75;5.88;;;5.50;99.90;;;;;;5052912;28;20531;-82
2022/02/03 06:34:15;;;;;;;7.95;5.95;;;5.50;99.90;;;;;;5060132;28;20029;-83
2022/02/03 06:36:42;;;;;;;7.57;6.10;;;5.50;99.90;;;;;;5055686;28;20427;-80
2022/02/03 06:39:22;;;;;;;8.25;6.00;;;5.60;99.90;;;;;;5053540;28;20033;-83
2022/02/03 06:41:54;;;;;;;7.15;5.57;;;5.60;99.90;;;;;;5053875;28;20028;-74
2022/02/03 06:44:24;;;;;;;6.65;5.20;;;5.70;99.90;;;;;;5055024;28;20032;-78
2022/02/03 06:46:52;;;;;;;7.35;5.70;;;5.70;99.90;;;;;;5053160;28;20028;-73
2022/02/03 06:49:40;;;;;;;8.07;5.20;;;5.80;99.90;;;;;;5048615;28;20044;-78
2022/02/03 06:52:11;;;;;;;5.75;4.95;;;5.90;99.90;;;;;;5053290;28;20021;-76
2022/02/03 06:54:54;;;;;;;8.20;5.00;;;5.90;99.90;;;;;;5053893;28;20055;-79
2022/02/03 06:57:33;;;;;;;5.63;4.47;;;6.00;99.90;;;;;;5052029;28;20047;-79
2022/02/03 07:00:06;;;;;;;5.68;4.40;;;6.20;99.90;;;;;;5051093;28;20086;-79
2022/02/03 07:02:38;;;;;;;4.78;4.28;;;6.20;99.90;;;;;;5052879;28;20036;-78
2022/02/03 07:05:04;;;;;;;7.15;4.45;;;6.30;99.90;;;;;;5072708;28;20029;-81
2022/02/03 07:07:30;;;;;;;4.57;3.88;;;6.30;99.90;;;;;;5052699;28;20025;-79
2022/02/03 07:09:56;;;;;;;5.28;3.97;;;6.30;99.90;;;;;;5052242;28;20040;-79
2022/02/03 07:12:22;;;;;;;6.13;4.30;;;6.40;99.90;;;;;;5052864;28;20040;-79
2022/02/03 07:14:48;;;;;;;5.45;3.92;;;6.40;99.90;;;;;;5052267;28;20382;-76
2022/02/03 07:17:14;;;;;;;4.75;4.15;;;6.40;99.90;;;;;;5053333;28;20035;-77
2022/02/03 07:19:46;;;;;;;4.82;3.80;;;6.40;99.90;;;;;;5052503;28;20029;-78
2022/02/03 07:22:12;;;;;;;5.47;3.60;;;6.40;99.90;;;;;;5052525;28;20029;-77
2022/02/03 07:24:37;;;;;;;4.10;3.10;;;6.50;99.90;;;;;;5052414;28;20588;-77
2022/02/03 07:27:03;;;;;;;3.38;3.03;;;6.50;99.90;;;;;;5051781;28;20033;-78
2022/02/03 07:29:29;;;;;;;3.72;3.22;;;6.60;99.90;;;;;;5052061;28;20493;-78
2022/02/03 07:31:55;;;;;;;4.20;3.60;;;6.60;99.90;;;;;;5051230;28;20052;-78
2022/02/03 07:34:20;;;;;;;3.67;3.38;;;6.70;99.90;;;;;;5052055;28;20108;-80
2022/02/03 07:36:47;;;;;;;4.13;3.42;;;6.70;99.90;;;;;;5052069;28;20032;-78
2022/02/03 07:39:13;;;;;;;6.72;4.57;;;6.70;99.90;;;;;;5055520;28;20477;-80
2022/02/03 07:41:40;;;;;;;5.72;4.55;;;6.80;99.90;;;;;;5055043;28;20093;-81
2022/02/03 07:44:07;;;;;;;7.25;5.18;;;6.90;99.90;;;;;;5062823;28;20533;-81
2022/02/03 07:46:34;;;;;;;6.55;5.20;;;7.00;99.90;;;;;;5053139;28;20086;-79
2022/02/03 07:49:00;;;;;;;6.05;5.35;;;7.00;99.90;;;;;;5056464;28;20117;-77
2022/02/03 07:51:27;;;;;;;5.95;4.97;;;7.10;99.90;;;;;;5052378;28;20037;-73
2022/02/03 07:53:53;;;;;;;6.97;5.45;;;7.10;99.90;;;;;;5049334;28;20083;-73
2022/02/03 07:56:19;;;;;;;5.22;4.57;;;7.10;99.90;;;;;;5051485;28;20120;-73
2022/02/03 07:58:44;;;;;;;5.28;4.55;;;7.20;99.90;;;;;;5050585;28;20121;-73
2022/02/03 08:01:10;;;;;;;6.32;5.00;;;7.20;99.90;;;;;;5049604;28;20070;-73
2022/02/03 08:03:42;;;;;;;5.20;4.30;;;7.20;99.90;;;;;;5051323;28;20428;-75
2022/02/03 08:06:12;;;;;;;5.90;4.65;;;7.20;99.90;;;;;;5050834;28;20009;-75
2022/02/03 08:08:52;;;;;;;5.63;4.47;;;7.20;99.90;;;;;;5048792;28;20029;-73
2022/02/03 08:11:24;;;;;;;4.83;4.17;;;7.20;99.90;;;;;;5048162;28;20178;-73
2022/02/03 08:16:30;;;;;;;4.55;4.15;;;7.20;99.90;;;;;;5047577;28;20025;-73
2022/02/03 08:19:23;;;;;;;4.25;3.60;;;7.30;99.90;;;;;;5052187;28;20159;-73
2022/02/03 08:21:46;;;;;;;5.47;4.45;;;7.30;99.90;;;;;;5048347;28;20043;-74
2022/02/03 08:26:47;;;;;;;5.70;4.43;;;7.40;99.90;;;;;;5046001;28;20040;-74
2022/02/03 08:29:30;;;;;;;5.50;4.13;;;7.40;99.90;;;;;;5051372;28;20083;-75
2022/02/03 08:32:11;;;;;;;6.70;4.82;;;7.50;99.90;;;;;;5049609;28;20024;-76
2022/02/03 08:34:58;;;;;;;4.80;4.18;;;7.50;99.90;;;;;;5048261;28;20033;-75
2022/02/03 08:37:58;;;;;;;4.65;3.85;;;7.60;99.90;;;;;;5049209;28;20033;-74
2022/02/03 08:40:43;;;;;;;3.78;3.35;;;7.80;99.90;;;;;;5044825;28;20054;-73
2022/02/03 08:43:13;;;;;;;3.75;3.38;;;7.90;99.90;;;;;;5047156;28;20106;-74
2022/02/03 08:45:39;;;;;;;4.75;3.33;;;8.00;99.90;;;;;;5048763;28;20031;-75
2022/02/03 08:48:05;;;;;;;3.13;2.78;;;8.10;99.90;;;;;;5051632;28;20028;-75
2022/02/03 08:50:33;;;;;;;6.10;3.47;;;8.10;99.90;;;;;;5050884;28;20025;-75
2022/02/03 08:55:48;;;;;;;4.32;2.55;;;8.30;99.90;;;;;;5048995;28;20439;-74
2022/02/03 09:59:37;;;;;;;2.20;2.00;;;9.10;99.90;;;;;;5043604;28;20040;-73
2022/02/03 10:02:12;;;;;;;1.63;1.52;;;9.00;99.90;;;;;;5046554;28;20037;-73
2022/02/03 10:07:20;;;;;;;3.90;1.83;;;9.10;99.90;;;;;;5048807;28;20405;-73
2022/02/03 10:09:48;;;;;;;2.75;1.50;;;9.20;99.90;;;;;;5049981;28;20035;-73
2022/02/03 10:12:15;;;;;;;3.38;1.50;;;9.30;99.90;;;;;;5049405;28;20017;-73
2022/02/03 10:14:44;;;;;;;1.55;1.20;;;9.30;99.90;;;;;;5049888;28;20052;-73
2022/02/03 10:17:10;;;;;;;2.13;1.30;;;9.30;99.90;;;;;;5050247;28;20017;-74
2022/02/03 10:19:45;;;;;;;1.30;1.20;;;9.40;99.90;;;;;;5055465;28;20021;-73
2022/02/03 10:22:21;;;;;;;2.00;1.35;;;9.40;99.90;;;;;;5052467;28;20194;-73
2022/02/03 10:24:50;;;;;;;1.90;1.23;;;9.50;99.90;;;;;;5051332;28;20024;-73
2022/02/03 10:27:35;;;;;;;2.85;1.50;;;;;;;;;;5053065;28;20112;-74
2022/02/03 10:30:07;;;;;;;1.70;1.25;;;;;;;;;;5050530;28;20466;-74
2022/02/03 10:32:41;;;;;;;1.35;1.25;;;;;;;;;;5052990;28;20051;-73
2022/02/03 10:35:14;;;;;;;1.02;0.93;;;;;;;;;;5052210;28;20820;-73
2022/02/03 10:37:44;;;;;;;1.45;0.90;;;;;;;;;;5050345;28;20083;-74
2022/02/03 10:40:40;;;;;;;1.40;1.10;;;;;;;;;;5052437;28;20074;-73
2022/02/03 10:43:36;;;;;;;1.27;1.00;;;;;;;;;;5051530;28;20537;-73
2022/02/03 11:08:29;;;;;;;1.17;0.95;;;10.80;99.90;;;;;;5049989;28;20112;-74
2022/02/03 11:10:38;;;;;;;2.20;1.23;;;10.70;99.90;;;;;;5046838;28;20049;-74
2022/02/03 11:13:04;;;;;;;3.58;1.13;;;10.70;99.90;;;;;;5049798;28;20021;-74
2022/02/03 11:15:33;;;;;;;1.35;0.80;;;10.70;99.90;;;;;;5052314;28;20017;-73
2022/02/03 11:18:02;;;;;;;1.90;1.00;;;10.70;99.90;;;;;;5046475;28;20028;-74
2022/02/03 11:20:32;;;;;;;1.15;0.80;;;10.80;99.90;;;;;;5052709;28;20036;-73
2022/02/03 11:50:51;;;;;;;1.83;1.63;;;10.80;99.90;;;;;;5049156;28;20095;-74
2022/02/03 12:01:44;;;;;;;2.65;1.90;;;10.80;99.90;;;;;;5048323;28;20033;-73
2022/02/03 12:04:37;;;;;;;1.98;1.38;;;10.80;99.90;;;;;;5049575;28;20021;-73
2022/02/03 12:15:51;;;;;;;3.80;1.50;;;11.10;99.90;;;;;;5052455;28;20393;-72
2022/02/03 12:21:25;;;;;;;3.83;1.50;;;11.10;99.90;;;;;;5068326;28;20034;-73
2022/02/03 12:24:12;;;;;;;1.52;1.08;;;11.10;99.90;;;;;;5046050;28;20032;-73
2022/02/03 12:26:57;;;;;;;1.83;1.50;;;11.10;99.90;;;;;;5051123;28;20513;-73
2022/02/03 12:40:25;;;;;;;2.00;1.20;;;11.50;99.90;;;;;;5049495;28;20571;-73
2022/02/03 12:43:03;;;;;;;1.50;1.10;;;11.40;99.90;;;;;;5048505;28;20017;-73
2022/02/03 12:45:31;;;;;;;1.92;1.10;;;11.40;99.90;;;;;;5048793;28;20436;-74
2022/02/03 12:48:04;;;;;;;3.67;1.30;;;11.50;99.90;;;;;;5049582;28;20036;-73
2022/02/03 12:50:31;;;;;;;1.70;1.20;;;11.60;99.90;;;;;;5045083;28;20448;-73
2022/02/03 12:52:58;;;;;;;3.85;1.20;;;11.60;99.90;;;;;;5049490;28;20446;-73
2022/02/03 12:55:33;;;;;;;1.98;1.25;;;11.70;99.90;;;;;;5046909;28;20029;-73
2022/02/03 12:58:05;;;;;;;3.35;1.15;;;11.70;99.90;;;;;;5049452;28;20029;-74
2022/02/03 13:00:42;;;;;;;1.48;0.85;;;11.70;99.90;;;;;;5050060;28;20045;-74
2022/02/03 13:03:10;;;;;;;1.20;1.10;;;11.70;99.90;;;;;;5047899;28;20029;-74
2022/02/03 13:05:38;;;;;;;2.78;1.10;;;11.70;99.90;;;;;;5042646;28;20037;-73
2022/02/03 13:08:07;;;;;;;2.40;1.50;;;11.80;99.90;;;;;;5050416;28;20033;-73
2022/02/03 13:10:34;;;;;;;1.45;1.35;;;11.80;99.90;;;;;;5050067;28;20381;-73
2022/02/03 13:13:33;;;;;;;1.85;1.08;;;11.80;99.90;;;;;;5049652;28;20025;-73
2022/02/03 13:16:08;;;;;;;1.63;1.05;;;11.70;99.90;;;;;;5047617;28;20021;-73
2022/02/03 13:18:36;;;;;;;1.27;1.05;;;11.70;99.90;;;;;;5047681;28;20474;-73
2022/02/03 13:21:52;;;;;;;1.83;1.00;;;11.60;99.90;;;;;;5042702;28;20115;-73
2022/02/03 13:24:32;;;;;;;1.35;1.10;;;11.50;99.90;;;;;;5049620;28;20037;-73
2022/02/03 13:26:58;;;;;;;4.10;1.65;;;11.50;99.90;;;;;;5046314;28;20091;-73
2022/02/03 13:29:49;;;;;;;2.43;1.33;;;11.40;99.90;;;;;;5051214;28;20355;-74
2022/02/03 13:32:22;;;;;;;1.20;1.10;;;11.40;99.90;;;;;;5047908;28;20238;-73
2022/02/03 13:34:56;;;;;;;1.10;1.00;;;11.30;99.90;;;;;;5046812;28;20097;-72
2022/02/03 13:37:32;;;;;;;2.58;1.30;;;11.20;99.90;;;;;;5050211;28;20078;-72
2022/02/03 13:40:12;;;;;;;1.98;1.08;;;11.10;99.90;;;;;;5049283;28;20064;-73
2022/02/03 13:42:44;;;;;;;2.42;1.10;;;11.10;99.90;;;;;;5049371;28;20021;-73
2022/02/03 13:45:10;;;;;;;3.53;1.10;;;11.00;99.90;;;;;;5047337;28;20025;-73
2022/02/03 13:47:37;;;;;;;3.22;1.33;;;11.00;99.90;;;;;;5050344;28;20078;-73
2022/02/03 13:50:23;;;;;;;3.55;1.13;;;11.00;99.90;;;;;;5048843;28;20466;-72
2022/02/03 14:28:22;;;;;;;1.73;1.30;;;11.10;99.90;;;;;;5041801;28;20102;-71
2022/02/03 14:30:52;;;;;;;3.22;1.10;;;11.10;99.90;;;;;;5033581;28;20025;-71
2022/02/03 14:33:26;;;;;;;4.50;0.98;;;11.00;99.90;;;;;;5033073;28;20032;-72
2022/02/03 14:35:52;;;;;;;2.75;1.17;;;11.00;99.90;;;;;;5033511;28;20033;-71
2022/02/03 14:38:27;;;;;;;2.92;1.30;;;10.90;99.90;;;;;;5046864;28;20135;-71
2022/02/03 14:43:21;;;;;;;3.35;1.48;;;10.90;99.90;;;;;;5047021;28;20029;-73
2022/02/03 14:45:48;;;;;;;2.78;1.60;;;10.80;99.90;;;;;;5050660;28;20037;-85
2022/02/03 14:48:15;;;;;;;1.75;1.30;;;10.70;99.90;;;;;;5047754;28;20116;-73
2022/02/03 14:50:43;;;;;;;3.25;1.52;;;10.70;99.90;;;;;;5052488;28;20037;-73
2022/02/03 14:53:28;;;;;;;2.95;1.30;;;10.70;99.90;;;;;;5032247;28;20033;-76
2022/02/03 14:58:39;;;;;;;2.90;1.60;;;10.60;99.90;;;;;;5039449;28;20209;-77
2022/02/03 15:01:05;;;;;;;2.60;2.08;;;10.50;99.90;;;;;;5032203;28;20029;-76
2022/02/03 15:03:31;;;;;;;2.40;1.45;;;10.40;99.90;;;;;;5032429;28;20035;-82
2022/02/03 15:06:04;;;;;;;2.00;1.48;;;10.40;99.90;;;;;;5031138;28;20105;-76
2022/02/03 15:11:06;;;;;;;2.60;1.60;;;10.20;99.90;;;;;;5051880;28;20031;-77
2022/02/03 15:15:59;;;;;;;3.10;1.35;;;10.10;99.90;;;;;;5045104;28;20029;-76
2022/02/03 15:18:26;;;;;;;2.47;1.42;;;10.00;99.90;;;;;;5057300;28;20152;-77
2022/02/03 15:20:52;;;;;;;3.15;1.92;;;9.90;99.90;;;;;;5056990;28;20037;-77
2022/02/03 15:23:18;;;;;;;2.85;1.85;;;9.90;99.90;;;;;;5051824;28;20086;-77
2022/02/03 15:25:43;;;;;;;2.10;1.58;;;9.80;99.90;;;;;;5051884;28;20445;-75
2022/02/03 15:28:09;;;;;;;4.30;1.50;;;9.70;99.90;;;;;;5051989;28;20029;-74
2022/02/03 15:30:35;;;;;;;1.73;1.10;;;9.70;99.90;;;;;;5052460;28;20067;-75
2022/02/03 15:33:00;;;;;;;3.05;1.67;;;9.60;99.90;;;;;;5051682;28;20025;-74
2022/02/03 15:38:00;;;;;;;2.28;1.92;;;9.50;99.90;;;;;;5051617;28;20033;-75
2022/02/03 15:40:28;;;;;;;2.25;1.73;;;9.50;99.90;;;;;;5052468;28;20042;-76
2022/02/03 15:43:23;;;;;;;3.75;1.92;;;9.40;99.90;;;;;;5052057;28;20052;-74
2022/02/03 15:45:51;;;;;;;2.13;1.80;;;9.40;99.90;;;;;;5051879;28;20083;-75
2022/02/03 16:17:41;;;;;;;3.28;2.20;;;8.40;99.90;;;;;;5051016;28;20025;-77
2022/02/03 16:20:28;;;;;;;7.22;2.80;;;8.40;99.90;;;;;;5055555;28;20598;-74
2022/02/03 16:54:34;;;;;;;2.53;2.20;;;7.80;99.90;;;;;;5048930;28;20560;-75
2022/02/03 16:57:04;;;;;;;3.90;2.15;;;7.90;99.90;;;;;;5045327;28;20072;-74
2022/02/03 16:59:32;;;;;;;2.67;2.40;;;7.80;99.90;;;;;;5047799;28;20120;-73
2022/02/03 17:01:58;;;;;;;2.95;2.33;;;7.80;99.90;;;;;;5047250;28;20086;-75
2022/02/03 17:04:24;;;;;;;3.20;2.50;;;7.80;99.90;;;;;;5042152;28;20452;-74
2022/02/03 17:06:50;;;;;;;5.03;2.95;;;7.80;99.90;;;;;;5044399;28;20026;-72
2022/02/03 17:09:16;;;;;;;4.28;2.47;;;7.80;99.90;;;;;;5042383;28;20017;-73
2022/02/03 17:11:41;;;;;;;4.47;2.70;;;7.80;99.90;;;;;;5046926;28;20025;-74
2022/02/03 17:14:07;;;;;;;3.90;2.88;;;7.70;99.90;;;;;;5045434;28;20035;-74
2022/02/03 17:16:33;;;;;;;4.28;2.72;;;7.70;99.90;;;;;;5047899;28;20045;-74
2022/02/03 17:18:59;;;;;;;2.80;2.33;;;7.70;99.90;;;;;;5048976;28;20065;-74
2022/02/03 17:21:30;;;;;;;5.07;2.90;;;7.60;99.90;;;;;;5047762;28;20029;-75
2022/02/03 17:23:56;;;;;;;5.15;3.42;;;7.60;99.90;;;;;;5048594;28;20492;-74
2022/02/03 17:26:32;;;;;;;6.90;2.83;;;7.60;99.90;;;;;;5048374;28;20021;-74
2022/02/03 17:29:27;;;;;;;3.97;2.88;;;7.50;99.90;;;;;;5049894;28;20033;-74
2022/02/03 17:32:03;;;;;;;3.80;2.92;;;7.50;99.90;;;;;;5050754;28;20029;-75
2022/02/03 18:09:15;;;;;;;8.57;5.40;;;7.20;99.90;;;;;;5053744;28;20411;-72
2022/02/03 18:19:53;;;;;;;7.15;3.85;;;7.00;99.90;;;;;;5067817;28;20044;-76
2022/02/03 18:31:00;;;;;;;6.45;4.60;;;6.90;99.90;;;;;;5043485;28;20121;-73
2022/02/03 18:54:28;;;;;;;7.85;5.72;;;6.60;99.90;;;;;;5053385;28;20058;-76
2022/02/03 19:11:12;;;;;;;9.90;6.82;;;6.20;99.90;;;;;;5053462;28;20075;-75
2022/02/03 19:16:12;;;;;;;13.68;8.93;;;6.10;99.90;;;;;;5052914;28;20029;-74
2022/02/03 19:22:16;;;;;;;12.52;8.93;;;6.00;99.90;;;;;;5067858;28;20052;-76
2022/02/03 20:01:06;;;;;;;15.15;10.95;;;5.50;99.90;;;;;;5030090;28;20386;-74
2022/02/03 20:08:15;;;;;;;17.67;12.25;;;5.30;99.90;;;;;;5046297;28;20036;-73
2022/02/03 20:10:44;;;;;;;16.88;12.07;;;5.30;99.90;;;;;;5051434;28;20025;-74
2022/02/03 20:13:10;;;;;;;20.58;15.05;;;5.20;99.90;;;;;;5050286;28;20017;-74
2022/02/03 20:15:38;;;;;;;20.95;14.88;;;5.20;99.90;;;;;;5051415;28;20489;-74
2022/02/03 20:18:05;;;;;;;21.45;14.43;;;5.20;99.90;;;;;;5050441;28;20120;-73
2022/02/03 20:20:32;;;;;;;23.80;16.17;;;5.20;99.90;;;;;;5051209;28;20535;-74
2022/02/03 20:22:58;;;;;;;21.15;14.85;;;5.20;99.90;;;;;;5051251;28;20025;-74
2022/02/03 20:25:24;;;;;;;24.10;15.45;;;5.20;99.90;;;;;;5050713;28;20039;-74
2022/02/03 20:27:50;;;;;;;21.95;14.45;;;5.10;99.90;;;;;;5050651;28;20037;-73
2022/02/03 20:30:15;;;;;;;20.73;14.95;;;5.20;99.90;;;;;;5049628;28;20029;-74
2022/02/03 20:32:41;;;;;;;19.60;14.52;;;5.20;99.90;;;;;;5050848;28;20040;-73
2022/02/03 20:35:07;;;;;;;18.52;13.75;;;5.10;99.90;;;;;;5046824;28;20055;-73
2022/02/03 20:37:33;;;;;;;20.38;14.90;;;5.10;99.90;;;;;;5050688;28;20021;-73
2022/02/03 20:39:59;;;;;;;21.80;14.40;;;5.10;99.90;;;;;;5050658;28;20405;-73
2022/02/03 20:42:24;;;;;;;17.67;13.00;;;5.10;99.90;;;;;;5049938;28;20059;-73
2022/02/03 20:44:50;;;;;;;18.17;13.93;;;5.10;99.90;;;;;;5050574;28;20024;-72
2022/02/03 20:47:18;;;;;;;20.40;14.02;;;5.10;99.90;;;;;;5049980;28;20078;-73
2022/02/03 20:49:43;;;;;;;18.20;13.70;;;5.10;99.90;;;;;;5050747;28;20115;-73
2022/02/03 20:52:10;;;;;;;18.40;13.15;;;5.00;99.90;;;;;;5049648;28;20423;-74
2022/02/03 20:54:36;;;;;;;19.73;14.48;;;5.00;99.90;;;;;;5050824;28;20032;-72
2022/02/03 20:57:03;;;;;;;23.58;15.05;;;5.00;99.90;;;;;;5049994;28;20094;-72
2022/02/03 20:59:46;;;;;;;20.35;14.65;;;4.90;99.90;;;;;;5050138;28;20045;-73
2022/02/03 21:02:22;;;;;;;21.40;14.85;;;5.00;99.90;;;;;;5047933;28;20112;-73
2022/02/03 21:04:59;;;;;;;20.90;14.85;;;5.00;99.90;;;;;;5049541;28;20048;-73
2022/02/03 21:07:24;;;;;;;19.90;14.20;;;5.00;99.90;;;;;;5048298;28;20041;-74
2022/02/03 21:09:50;;;;;;;22.10;15.07;;;5.00;99.90;;;;;;5050664;28;20052;-74
2022/02/03 21:12:16;;;;;;;21.80;15.98;;;4.90;99.90;;;;;;5048356;28;20120;-73
2022/02/03 21:14:41;;;;;;;25.52;15.93;;;4.90;99.90;;;;;;5050156;28;20029;-75
2022/02/03 21:17:07;;;;;;;24.55;16.65;;;5.00;99.90;;;;;;5049755;28;20056;-74
2022/02/03 21:19:33;;;;;;;22.17;16.17;;;4.90;99.90;;;;;;5050224;28;20371;-74
2022/02/03 21:21:59;;;;;;;23.88;17.02;;;4.90;99.90;;;;;;5049956;28;20036;-72
2022/02/03 21:24:25;;;;;;;26.08;16.95;;;4.90;99.90;;;;;;5049917;28;20040;-75
2022/02/03 21:26:53;;;;;;;26.63;17.60;;;4.90;99.90;;;;;;5049765;28;20027;-78
2022/02/03 21:29:19;;;;;;;22.27;16.42;;;4.90;99.90;;;;;;5047018;28;20169;-74
2022/02/03 21:31:45;;;;;;;23.38;16.58;;;4.90;99.90;;;;;;5049716;28;20473;-74
2022/02/03 21:34:15;;;;;;;25.40;17.48;;;4.80;99.90;;;;;;5048446;28;20110;-73
2022/02/03 21:36:43;;;;;;;24.08;17.88;;;4.80;99.90;;;;;;5050091;28;20036;-75
2022/02/03 21:39:09;;;;;;;26.85;17.60;;;4.80;99.90;;;;;;5048535;28;20041;-73
2022/02/03 21:41:34;;;;;;;26.73;17.58;;;4.70;99.90;;;;;;5049771;28;20032;-75
2022/02/03 21:44:00;;;;;;;26.83;17.67;;;4.70;99.90;;;;;;5049311;28;20033;-73
2022/02/03 21:46:26;;;;;;;22.55;15.15;;;4.80;99.90;;;;;;5048697;28;20466;-75
2022/02/03 21:48:52;;;;;;;23.42;16.70;;;4.80;99.90;;;;;;5050135;28;20104;-75
2022/02/03 21:51:23;;;;;;;21.60;15.10;;;4.80;99.90;;;;;;5047918;28;20526;-74
2022/02/03 21:53:49;;;;;;;20.98;14.70;;;4.80;99.90;;;;;;5049826;28;20040;-76
2022/02/03 21:56:16;;;;;;;23.02;14.90;;;4.80;99.90;;;;;;5046834;28;20049;-74
2022/02/03 21:58:42;;;;;;;21.70;14.48;;;4.80;99.90;;;;;;5049764;28;20045;-74
2022/02/03 22:01:08;;;;;;;23.88;14.70;;;4.80;99.90;;;;;;5051628;28;20021;-75
2022/02/03 22:03:33;;;;;;;19.25;13.52;;;4.90;99.90;;;;;;5049727;28;20024;-74
2022/02/03 22:06:00;;;;;;;27.52;15.02;;;4.90;99.90;;;;;;5049661;28;20381;-73
2022/02/03 22:08:27;;;;;;;20.10;14.25;;;4.90;99.90;;;;;;5050291;28;20029;-74
2022/02/03 22:10:55;;;;;;;25.15;14.73;;;4.90;99.90;;;;;;5049811;28;20032;-73
2022/02/03 22:13:21;;;;;;;20.52;14.77;;;4.90;99.90;;;;;;5052279;28;20453;-74
2022/02/03 22:15:47;;;;;;;22.33;15.02;;;4.90;99.90;;;;;;5054323;28;20063;-77
2022/02/03 22:18:15;;;;;;;22.00;14.88;;;4.90;99.90;;;;;;5053946;28;20064;-75
2022/02/03 22:20:55;;;;;;;22.83;15.18;;;4.90;99.90;;;;;;5054610;28;20033;-75
2022/02/03 22:44:53;;;;;;;18.98;12.88;;;4.70;99.90;;;;;;5053863;28;20033;-75
2022/02/03 22:47:22;;;;;;;21.00;14.13;;;4.70;99.90;;;;;;5053016;28;20033;-76
2022/02/03 22:49:47;;;;;;;22.50;13.50;;;4.60;99.90;;;;;;5054637;28;20488;-77
2022/02/03 22:52:16;;;;;;;21.38;14.40;;;4.60;99.90;;;;;;5053177;28;20110;-77
2022/02/03 22:54:42;;;;;;;21.20;13.95;;;4.60;99.90;;;;;;5053721;28;20040;-74
2022/02/03 22:57:08;;;;;;;22.08;15.20;;;4.50;99.90;;;;;;5053148;28;20424;-75
2022/02/03 23:00:36;;;;;;;23.38;14.73;;;4.40;99.90;;;;;;5054085;28;20402;-74
2022/02/03 23:02:30;;;;;;;29.10;16.30;;;4.40;99.90;;;;;;5043771;28;20116;-75
2022/02/03 23:04:55;;;;;;;22.00;14.80;;;4.40;99.90;;;;;;5053501;28;20128;-75
2022/02/03 23:07:34;;;;;;;30.38;19.40;;;4.40;99.90;;;;;;5053270;28;20025;-76
2022/02/03 23:10:14;;;;;;;29.00;18.75;;;4.30;99.90;;;;;;5053860;28;20029;-74
2022/02/03 23:22:29;;;;;;;25.40;16.83;;;4.50;99.90;;;;;;5053324;28;20029;-75
2022/02/03 23:24:55;;;;;;;23.45;16.23;;;4.60;99.90;;;;;;5053439;28;20067;-75
2022/02/03 23:29:54;;;;;;;22.10;16.13;;;4.70;99.90;;;;;;5053230;28;20033;-75
2022/02/03 23:32:21;;;;;;;23.33;16.13;;;4.70;99.90;;;;;;5052407;28;20033;-74
2022/02/03 23:34:54;;;;;;;22.08;15.30;;;4.80;99.90;;;;;;5053423;28;20033;-75
2022/02/03 23:37:20;;;;;;;21.85;15.15;;;4.80;99.90;;;;;;5052786;28;20390;-75
